Time;durP1;ratioP1;P1;durP2;ratioP2;P2;SDS_P1;SDS_P2;PMS_P1;PMS_P2;Temp;Humidity;BMP_temperature;BMP_pressure;BME280_temperature;BME280_humidity;BME280_pressure;Samples;Min_cycle;Max_cycle;Signal;HPM_P1;HPM_P2
2022/10/26 00:02:25;;;;;;;7.10;2.88;;;;;;;17.16;43.06;94312.88;5030777;28;20466;-78
2022/10/26 00:04:50;;;;;;;5.47;2.53;;;;;;;17.31;42.92;94318.63;5027768;28;20021;-77
2022/10/26 00:07:15;;;;;;;7.30;3.10;;;;;;;17.50;42.51;94329.56;5031725;28;20099;-78
2022/10/26 00:09:41;;;;;;;9.15;3.38;;;;;;;17.42;42.38;94300.91;5027377;28;20758;-77
2022/10/26 00:12:06;;;;;;;10.35;2.70;;;;;;;17.36;42.19;94303.03;5029719;28;20103;-76
2022/10/26 00:14:32;;;;;;;5.57;2.25;;;;;;;17.54;42.28;94328.53;5027411;28;20021;-77
2022/10/26 00:16:57;;;;;;;8.73;2.53;;;;;;;17.54;42.09;94317.75;5028760;28;20303;-78
2022/10/26 00:19:23;;;;;;;7.13;2.30;;;;;;;17.57;42.14;94329.72;5027749;28;20092;-79
2022/10/26 00:21:48;;;;;;;4.68;1.75;;;;;;;17.21;42.44;94316.47;5029585;28;20039;-76
2022/10/26 00:24:14;;;;;;;4.13;2.22;;;;;;;17.02;42.72;94299.03;5029699;28;20031;-78
2022/10/26 00:26:40;;;;;;;3.88;2.00;;;;;;;17.22;43.03;94328.75;5027170;28;20440;-78
2022/10/26 00:29:06;;;;;;;5.28;2.50;;;;;;;17.06;43.14;94304.50;5027004;28;20443;-77
2022/10/26 00:31:32;;;;;;;6.18;2.97;;;;;;;17.13;43.07;94315.44;5030579;28;20035;-77
2022/10/26 00:33:58;;;;;;;7.10;2.25;;;;;;;17.26;42.59;94321.59;5027725;28;20291;-77
2022/10/26 00:36:25;;;;;;;4.80;1.77;;;;;;;17.28;42.39;94316.66;5028586;28;20033;-78
2022/10/26 00:38:53;;;;;;;4.40;1.85;;;;;;;17.26;42.52;94310.84;5029528;28;20645;-77
2022/10/26 00:41:21;;;;;;;5.80;2.38;;;;;;;17.44;41.99;94330.91;5035847;28;20025;-78
2022/10/26 00:43:48;;;;;;;8.23;2.20;;;;;;;17.44;42.04;94325.53;5029198;28;20789;-78
2022/10/26 00:46:31;;;;;;;9.02;4.32;;;;;;;17.42;42.34;94333.16;5028786;28;20707;-77
2022/10/26 00:49:02;;;;;;;2.78;2.00;;;;;;;17.26;42.52;94325.03;5035189;28;20021;-77
2022/10/26 00:51:34;;;;;;;9.00;2.33;;;;;;;17.23;42.59;94330.34;5024775;28;20580;-77
2022/10/26 00:54:04;;;;;;;5.28;2.08;;;;;;;17.25;42.76;94328.09;5028512;28;20022;-77
2022/10/26 00:56:31;;;;;;;6.63;2.08;;;;;;;17.34;42.54;94328.72;5030056;28;20476;-78
2022/10/26 00:59:01;;;;;;;4.70;1.65;;;;;;;17.29;42.52;94315.53;5033792;28;20572;-77
2022/10/26 01:01:28;;;;;;;3.35;2.05;;;;;;;17.31;42.34;94315.94;5029540;28;20028;-76
2022/10/26 01:03:54;;;;;;;9.85;2.95;;;;;;;17.34;42.11;94326.03;5031548;28;20029;-77
2022/10/26 01:06:20;;;;;;;4.05;2.55;;;;;;;17.24;42.18;94315.78;5031934;28;20029;-78
2022/10/26 01:08:46;;;;;;;2.42;1.50;;;;;;;17.37;41.98;94314.59;5038489;28;20121;-77
2022/10/26 01:11:12;;;;;;;2.95;1.52;;;;;;;17.41;41.84;94316.25;5031492;28;20292;-78
2022/10/26 01:13:39;;;;;;;3.45;1.15;;;;;;;17.37;41.49;94306.53;5029432;28;20707;-77
2022/10/26 01:16:07;;;;;;;3.17;1.65;;;;;;;17.33;41.58;94309.13;5027738;28;20507;-77
2022/10/26 01:18:48;;;;;;;8.05;1.58;;;;;;;17.28;41.47;94305.91;5044471;28;20067;-77
2022/10/26 01:21:31;;;;;;;2.35;1.40;;;;;;;17.28;41.55;94306.69;5028580;28;20025;-80
2022/10/26 01:24:16;;;;;;;5.05;2.17;;;;;;;16.95;42.24;94303.44;5045410;28;20032;-78
2022/10/26 01:26:51;;;;;;;;;;;;;;;16.66;42.55;94296.47;5031103;28;20041;-79
2022/10/26 01:29:54;;;;;;;4.53;1.30;;;;;;;16.70;42.75;94313.44;5045958;28;20629;-77
2022/10/26 01:32:47;;;;;;;2.70;1.10;;;;;;;16.67;42.74;94306.09;5029099;28;20477;-77
2022/10/26 01:35:25;;;;;;;1.95;1.02;;;;;;;16.54;42.77;94285.72;5017931;28;20665;-77
2022/10/26 01:38:05;;;;;;;3.97;2.17;;;;;;;16.77;42.83;94316.31;5028247;28;20041;-78
2022/10/26 01:40:36;;;;;;;2.97;1.20;;;;;;;16.56;43.03;94288.88;5030596;28;20021;-77
2022/10/26 01:43:07;;;;;;;3.22;1.80;;;;;;;16.78;43.21;94301.78;5030143;28;20044;-77
2022/10/26 01:45:36;;;;;;;3.33;1.38;;;;;;;16.83;43.09;94281.97;5038350;28;20482;-77
2022/10/26 01:48:03;;;;;;;3.80;2.10;;;;;;;16.77;42.96;94281.41;5031966;28;20491;-78
2022/10/26 01:50:30;;;;;;;3.30;1.60;;;;;;;16.77;43.10;94297.53;5031435;28;20028;-77
2022/10/26 01:52:56;;;;;;;4.22;1.50;;;;;;;16.56;43.25;94275.44;5030086;28;20039;-78
2022/10/26 01:55:43;;;;;;;4.55;1.98;;;;;;;16.59;43.20;94290.88;5029098;28;20033;-77
2022/10/26 01:58:14;;;;;;;13.35;2.40;;;;;;;16.48;43.21;94262.91;5030039;28;20454;-77
2022/10/26 02:00:48;;;;;;;5.63;2.17;;;;;;;16.52;43.02;94269.19;5031808;28;20091;-77
2022/10/26 02:03:16;;;;;;;4.90;2.22;;;;;;;16.70;43.11;94297.34;5029160;28;20021;-77
2022/10/26 02:05:58;;;;;;;5.00;1.55;;;;;;;16.79;42.86;94292.59;5032092;28;20060;-78
2022/10/26 02:08:36;;;;;;;5.45;1.67;;;;;;;16.84;42.67;94280.84;5043948;28;20509;-78
2022/10/26 02:11:20;;;;;;;4.57;1.50;;;;;;;16.90;42.36;94293.69;5029588;28;20079;-78
2022/10/26 02:13:52;;;;;;;1.53;1.20;;;;;;;16.81;42.51;94266.19;5032436;28;20033;-77
2022/10/26 02:16:26;;;;;;;3.83;1.33;;;;;;;16.99;42.42;94280.91;5031134;28;20112;-77
2022/10/26 02:19:20;;;;;;;3.35;1.58;;;;;;;16.98;42.49;94297.34;5029441;28;20090;-78
2022/10/26 02:21:51;;;;;;;5.43;1.40;;;;;;;16.76;42.52;94261.06;5031438;28;20087;-77
2022/10/26 02:24:18;;;;;;;7.03;1.73;;;;;;;16.96;42.45;94295.03;5037202;28;20032;-78
2022/10/26 02:26:47;;;;;;;3.92;1.20;;;;;;;16.92;42.50;94296.03;5030227;28;20044;-78
2022/10/26 02:29:17;;;;;;;5.97;1.88;;;;;;;16.97;42.49;94301.94;5029113;28;20371;-78
2022/10/26 02:31:46;;;;;;;2.17;1.48;;;;;;;17.04;42.54;94296.78;5030428;28;20013;-78
2022/10/26 02:34:17;;;;;;;5.47;1.80;;;;;;;17.07;42.51;94296.09;5030527;28;20021;-79
2022/10/26 02:36:45;;;;;;;8.43;1.67;;;;;;;16.87;42.24;94272.88;5032735;28;20056;-78
2022/10/26 02:39:15;;;;;;;2.35;1.20;;;;;;;17.10;42.19;94300.00;5030578;28;20038;-77
2022/10/26 02:41:43;;;;;;;2.33;1.10;;;;;;;17.10;42.40;94302.69;5029176;28;20481;-77
2022/10/26 02:44:25;;;;;;;3.03;1.73;;;;;;;17.07;42.30;94289.94;5038195;28;20029;-77
2022/10/26 02:46:52;;;;;;;2.45;1.10;;;;;;;17.14;42.25;94307.06;5031191;28;20542;-79
2022/10/26 02:49:18;;;;;;;1.48;0.98;;;;;;;17.13;42.29;94302.81;5029369;28;20029;-77
2022/10/26 02:52:05;;;;;;;3.65;1.38;;;;;;;17.15;42.13;94297.13;5046106;28;20053;-77
2022/10/26 02:54:58;;;;;;;4.15;1.45;;;;;;;16.77;42.69;94308.28;5030733;28;20500;-77
2022/10/26 02:57:38;;;;;;;2.90;1.30;;;;;;;16.77;42.59;94277.97;5028463;28;20029;-77
2022/10/26 03:00:05;;;;;;;3.40;1.58;;;;;;;16.78;42.59;94280.28;5028972;28;20021;-78
2022/10/26 03:02:31;;;;;;;3.88;1.48;;;;;;;16.79;42.72;94291.81;5028039;28;20025;-77
2022/10/26 03:05:15;;;;;;;2.88;1.33;;;;;;;16.72;42.84;94292.41;5028663;28;20396;-77
2022/10/26 03:07:41;;;;;;;1.70;1.25;;;;;;;16.50;43.20;94285.63;5030763;28;20039;-77
2022/10/26 03:10:06;;;;;;;2.58;1.30;;;;;;;16.61;43.30;94310.91;5028224;28;20028;-77
2022/10/26 03:12:32;;;;;;;5.05;1.65;;;;;;;16.57;43.36;94293.13;5028007;28;20029;-77
2022/10/26 03:14:57;;;;;;;8.10;1.70;;;;;;;16.46;43.16;94284.75;5029545;28;20485;-77
2022/10/26 03:17:22;;;;;;;2.70;1.13;;;;;;;16.39;43.30;94276.47;5028051;28;20071;-77
2022/10/26 03:19:48;;;;;;;7.32;1.70;;;;;;;16.39;43.51;94295.25;5029183;28;20115;-77
2022/10/26 03:22:13;;;;;;;6.18;1.60;;;;;;;16.51;43.56;94327.47;5030620;28;20540;-77
2022/10/26 03:24:38;;;;;;;3.55;2.30;;;;;;;16.55;43.87;94323.00;5028881;28;20021;-78
2022/10/26 03:27:04;;;;;;;6.63;1.50;;;;;;;16.22;44.35;94325.78;5029021;28;20040;-77
2022/10/26 03:29:29;;;;;;;4.97;1.75;;;;;;;16.20;44.26;94314.59;5028087;28;20021;-79
2022/10/26 03:31:54;;;;;;;2.85;1.65;;;;;;;16.16;44.69;94326.34;5028972;28;20543;-77
2022/10/26 03:34:20;;;;;;;5.15;1.88;;;;;;;16.25;44.24;94314.38;5029747;28;20025;-77
2022/10/26 03:36:46;;;;;;;6.18;2.25;;;;;;;16.45;44.20;94354.88;5030496;28;20504;-77
2022/10/26 03:39:11;;;;;;;5.32;1.90;;;;;;;16.42;44.56;94360.94;5026745;28;20126;-79
2022/10/26 03:41:37;;;;;;;3.72;2.67;;;;;;;16.23;44.57;94343.44;5029873;28;20048;-77
2022/10/26 03:44:02;;;;;;;4.25;2.05;;;;;;;16.36;44.50;94349.63;5029501;28;20660;-77
2022/10/26 03:46:28;;;;;;;4.13;2.13;;;;;;;16.15;44.59;94341.66;5029399;28;20404;-77
2022/10/26 03:48:53;;;;;;;7.78;1.80;;;;;;;16.07;44.68;94323.78;5027685;28;20032;-77
2022/10/26 03:51:19;;;;;;;5.15;2.22;;;;;;;16.17;44.97;94350.16;5028854;28;20029;-79
2022/10/26 03:53:44;;;;;;;2.50;1.48;;;;;;;16.21;44.91;94353.75;5029597;28;20028;-77
2022/10/26 03:56:09;;;;;;;2.83;1.98;;;;;;;16.22;44.94;94352.63;5028301;28;20108;-77
2022/10/26 03:58:35;;;;;;;2.75;1.60;;;;;;;16.19;45.09;94339.84;5029702;28;20104;-77
2022/10/26 04:01:00;;;;;;;5.15;2.05;;;;;;;16.16;45.07;94337.84;5028013;28;20520;-77
2022/10/26 04:03:25;;;;;;;4.13;2.42;;;;;;;16.28;44.95;94353.94;5029829;28;20035;-77
2022/10/26 04:05:51;;;;;;;3.28;1.70;;;;;;;16.16;45.06;94359.31;5029912;28;20049;-77
2022/10/26 04:08:16;;;;;;;5.35;1.98;;;;;;;16.13;45.51;94351.16;5031603;28;20345;-78
2022/10/26 04:10:41;;;;;;;3.42;1.75;;;;;;;15.99;45.67;94345.34;5030202;28;20025;-78
2022/10/26 04:13:10;;;;;;;2.65;1.77;;;;;;;15.97;45.53;94332.25;5027688;28;20057;-77
2022/10/26 04:15:35;;;;;;;3.25;1.50;;;;;;;15.90;46.01;94330.13;5031352;28;20587;-78
2022/10/26 04:18:01;;;;;;;5.75;1.98;;;;;;;15.98;46.24;94352.59;5028126;28;20040;-78
2022/10/26 04:20:28;;;;;;;9.20;1.85;;;;;;;15.95;46.22;94336.38;5029167;28;20024;-78
2022/10/26 04:22:58;;;;;;;4.45;1.95;;;;;;;15.92;46.31;94367.34;5027562;28;20021;-77
2022/10/26 04:25:24;;;;;;;3.70;1.75;;;;;;;15.54;47.42;94356.09;5035736;28;20029;-77
2022/10/26 04:27:49;;;;;;;5.18;2.05;;;;;;;15.63;47.42;94354.09;5028082;28;20030;-78
2022/10/26 04:30:15;;;;;;;4.50;1.67;;;;;;;15.74;46.94;94341.84;5029113;28;20267;-78
2022/10/26 04:32:40;;;;;;;3.55;2.10;;;;;;;15.78;46.58;94329.31;5032522;28;20044;-77
2022/10/26 04:35:06;;;;;;;5.03;1.77;;;;;;;15.70;46.75;94319.47;5031799;28;20043;-78
2022/10/26 04:37:32;;;;;;;5.63;2.13;;;;;;;15.98;46.30;94351.81;5031721;28;20081;-77
2022/10/26 04:39:57;;;;;;;3.00;1.90;;;;;;;16.04;46.32;94361.97;5032472;28;20488;-77
2022/10/26 04:42:23;;;;;;;4.05;1.70;;;;;;;15.89;46.03;94339.28;5033450;28;20029;-78
2022/10/26 04:44:48;;;;;;;4.93;2.10;;;;;;;15.97;45.96;94345.66;5032426;28;20540;-78
2022/10/26 04:47:13;;;;;;;4.88;1.85;;;;;;;16.13;45.98;94372.63;5040276;28;20017;-77
2022/10/26 04:49:39;;;;;;;8.63;1.80;;;;;;;15.93;46.10;94344.78;5028092;28;20029;-78
2022/10/26 04:52:05;;;;;;;5.47;2.50;;;;;;;16.00;46.10;94371.03;5032871;28;20020;-78
2022/10/26 04:54:30;;;;;;;3.15;1.92;;;;;;;15.85;46.25;94365.19;5032025;28;20017;-77
2022/10/26 04:56:56;;;;;;;2.75;1.70;;;;;;;15.91;46.52;94376.50;5031666;28;20052;-77
2022/10/26 04:59:21;;;;;;;7.78;2.55;;;;;;;15.95;46.66;94385.44;5029918;28;20029;-77
2022/10/26 05:01:47;;;;;;;9.27;2.50;;;;;;;15.67;46.90;94353.09;5031952;28;20025;-77
2022/10/26 05:04:12;;;;;;;6.88;2.28;;;;;;;15.60;47.17;94368.94;5031925;28;20029;-77
2022/10/26 05:06:38;;;;;;;3.05;1.90;;;;;;;15.76;47.27;94379.81;5031573;28;20135;-76
2022/10/26 05:09:03;;;;;;;7.20;1.90;;;;;;;15.42;47.52;94320.03;5032700;28;20087;-77
2022/10/26 05:11:28;;;;;;;6.25;2.80;;;;;;;15.69;47.71;94371.53;5030333;28;20067;-77
2022/10/26 05:13:54;;;;;;;6.15;2.53;;;;;;;15.83;47.11;94375.50;5030057;28;20028;-76
2022/10/26 05:16:19;;;;;;;4.05;2.38;;;;;;;15.79;47.20;94358.47;5031076;28;20061;-77
2022/10/26 05:18:48;;;;;;;6.40;2.85;;;;;;;15.76;47.07;94345.75;5031510;28;20498;-77
2022/10/26 05:21:18;;;;;;;3.13;1.83;;;;;;;15.90;47.15;94361.50;5031170;28;20025;-77
2022/10/26 05:23:52;;;;;;;6.65;2.28;;;;;;;16.04;47.13;94380.75;5029174;28;20040;-77
2022/10/26 05:26:18;;;;;;;8.07;2.03;;;;;;;15.95;47.18;94368.56;5033234;28;20033;-78
2022/10/26 05:28:44;;;;;;;5.47;2.42;;;;;;;15.65;47.97;94354.53;5031714;28;20037;-77
2022/10/26 05:31:10;;;;;;;3.80;2.17;;;;;;;15.83;48.12;94388.91;5030862;28;20025;-76
2022/10/26 05:33:35;;;;;;;9.27;2.30;;;;;;;15.76;48.02;94377.13;5030713;28;20120;-76
2022/10/26 05:36:01;;;;;;;5.10;2.42;;;;;;;15.60;48.39;94378.88;5031929;28;20068;-77
2022/10/26 05:38:26;;;;;;;3.08;1.88;;;;;;;15.57;48.76;94392.94;5030658;28;20132;-75
2022/10/26 05:40:53;;;;;;;4.80;2.80;;;;;;;15.53;48.91;94389.34;5032196;28;20028;-77
2022/10/26 05:43:21;;;;;;;6.55;2.33;;;;;;;15.72;48.72;94408.41;5031368;28;20136;-77
2022/10/26 05:45:46;;;;;;;4.53;2.38;;;;;;;15.80;48.66;94407.53;5029962;28;20025;-77
2022/10/26 05:48:12;;;;;;;7.03;2.72;;;;;;;15.74;48.73;94400.84;5037379;28;20068;-76
2022/10/26 05:50:37;;;;;;;9.60;3.45;;;;;;;15.83;48.48;94406.88;5024777;28;20489;-76
2022/10/26 05:53:02;;;;;;;5.75;2.83;;;;;;;15.96;48.44;94413.06;5027782;28;20072;-77
2022/10/26 05:55:29;;;;;;;5.32;2.95;;;;;;;15.97;48.09;94403.91;5024582;28;20029;-77
2022/10/26 05:57:54;;;;;;;5.93;2.72;;;;;;;16.02;48.24;94420.56;5027061;28;20051;-77
2022/10/26 06:00:23;;;;;;;4.85;2.00;;;;;;;16.15;47.84;94422.16;5027358;28;20484;-76
2022/10/26 06:03:14;;;;;;;8.20;2.33;;;;;;;16.03;48.52;94430.19;5026242;28;20025;-77
2022/10/26 06:05:56;;;;;;;5.38;3.00;;;;;;;15.95;48.37;94412.28;5024002;28;20032;-77
2022/10/26 06:08:24;;;;;;;7.95;3.55;;;;;;;16.13;48.48;94434.34;5025502;28;20036;-77
2022/10/26 06:10:50;;;;;;;6.55;2.67;;;;;;;16.22;48.43;94438.50;5025456;28;20540;-79
2022/10/26 06:13:16;;;;;;;6.65;4.22;;;;;;;16.00;48.49;94411.28;5026170;28;20024;-78
2022/10/26 06:16:08;;;;;;;12.40;3.22;;;;;;;16.29;48.35;94444.09;5043086;28;20473;-78
2022/10/26 06:18:52;;;;;;;6.20;3.35;;;;;;;16.24;48.26;94443.53;5027773;28;20047;-78
2022/10/26 06:21:23;;;;;;;4.75;2.58;;;;;;;16.35;48.19;94442.00;5025953;28;20088;-79
2022/10/26 06:24:07;;;;;;;6.50;3.15;;;;;;;16.21;48.22;94426.19;5024929;28;20040;-79
2022/10/26 06:26:46;;;;;;;11.52;4.43;;;;;;;16.11;48.31;94415.88;5022756;28;20025;-78
2022/10/26 06:29:39;;;;;;;5.90;3.70;;;;;;;16.14;48.71;94450.09;5023378;28;20225;-79
2022/10/26 06:32:07;;;;;;;11.27;3.70;;;;;;;16.01;48.81;94426.25;5023856;28;20026;-78
2022/10/26 06:34:36;;;;;;;8.43;3.45;;;;;;;16.17;48.65;94430.66;5025640;28;20036;-79
2022/10/26 06:37:03;;;;;;;5.95;3.55;;;;;;;16.28;48.41;94436.41;5025018;28;20032;-79
2022/10/26 06:39:34;;;;;;;4.45;2.60;;;;;;;16.43;48.03;94451.84;5026621;28;20021;-78
2022/10/26 06:42:00;;;;;;;10.45;3.00;;;;;;;16.60;48.01;94457.03;5025019;28;20935;-78
2022/10/26 06:44:26;;;;;;;5.13;2.90;;;;;;;16.53;48.04;94450.63;5024486;28;20040;-78
2022/10/26 06:46:51;;;;;;;5.45;2.60;;;;;;;16.62;47.80;94443.28;5025359;28;20036;-77
2022/10/26 06:49:29;;;;;;;6.63;2.72;;;;;;;16.75;47.32;94442.16;5033448;28;20025;-78
2022/10/26 06:52:24;;;;;;;8.82;2.88;;;;;;;16.67;47.03;94425.00;5025272;28;20051;-78
2022/10/26 06:54:52;;;;;;;7.50;3.42;;;;;;;16.57;46.95;94443.50;5022069;28;20037;-78
2022/10/26 06:57:20;;;;;;;6.78;3.33;;;;;;;16.16;47.73;94401.47;5026086;28;20021;-78
2022/10/26 06:59:49;;;;;;;7.68;2.40;;;;;;;16.39;47.49;94431.38;5027050;28;20106;-77
2022/10/26 07:02:15;;;;;;;9.82;4.30;;;;;;;16.62;47.50;94456.69;5026017;28;20059;-79
2022/10/26 07:04:41;;;;;;;9.93;2.88;;;;;;;16.65;47.25;94459.50;5023047;28;20025;-78
2022/10/26 07:07:13;;;;;;;6.78;2.70;;;;;;;16.62;47.32;94441.34;5023914;28;20567;-78
2022/10/26 07:09:38;;;;;;;6.70;3.20;;;;;;;16.54;47.09;94419.97;5020523;28;20156;-78
2022/10/26 07:17:09;;;;;;;12.10;4.07;;;;;;;16.09;48.35;94423.47;5007098;28;20052;-78
2022/10/26 07:19:35;;;;;;;5.18;3.00;;;;;;;16.33;48.19;94434.28;5021743;28;20059;-77
2022/10/26 07:22:00;;;;;;;12.43;3.53;;;;;;;16.29;48.07;94409.19;5026696;28;20382;-77
2022/10/26 07:24:29;;;;;;;10.82;3.50;;;;;;;16.77;48.08;94474.81;5032371;28;20021;-78
2022/10/26 07:26:57;;;;;;;7.80;3.03;;;;;;;16.70;47.71;94437.78;5029898;28;20032;-78
2022/10/26 07:29:23;;;;;;;9.73;3.30;;;;;;;16.95;47.61;94461.94;5033788;28;20021;-77
2022/10/26 07:31:49;;;;;;;6.25;2.80;;;;;;;16.97;47.37;94457.00;5031990;28;20029;-77
2022/10/26 07:34:15;;;;;;;5.82;3.05;;;;;;;16.95;47.26;94451.19;5032471;28;20586;-77
2022/10/26 07:36:40;;;;;;;6.95;3.05;;;;;;;16.80;47.65;94433.88;5032998;28;20025;-78
2022/10/26 07:39:07;;;;;;;5.57;2.97;;;;;;;17.01;47.54;94461.38;5012178;28;20579;-75
2022/10/26 07:41:34;;;;;;;10.38;3.33;;;;;;;16.91;47.73;94450.31;5032656;28;20052;-78
2022/10/26 07:43:59;;;;;;;5.65;2.70;;;;;;;16.78;48.00;94444.16;5032382;28;20033;-76
2022/10/26 07:46:25;;;;;;;7.65;4.28;;;;;;;16.99;47.62;94468.22;5014108;28;20037;-77
2022/10/26 07:48:50;;;;;;;5.50;3.30;;;;;;;16.97;47.24;94459.69;5030379;28;20025;-77
2022/10/26 07:51:16;;;;;;;7.32;3.10;;;;;;;16.87;47.10;94436.75;5029733;28;20028;-77
2022/10/26 07:53:42;;;;;;;6.30;2.60;;;;;;;17.12;46.91;94465.16;5034200;28;20086;-76
2022/10/26 07:56:08;;;;;;;5.30;2.45;;;;;;;17.00;47.16;94430.25;5033810;28;20024;-76
2022/10/26 07:58:35;;;;;;;7.60;3.03;;;;;;;17.10;46.87;94429.00;5030827;28;20040;-77
2022/10/26 08:01:11;;;;;;;4.70;3.05;;;;;;;17.23;47.13;94453.97;5031893;28;20021;-77
2022/10/26 08:03:36;;;;;;;5.90;3.10;;;;;;;17.27;46.72;94450.28;5027353;28;20033;-77
2022/10/26 08:06:03;;;;;;;7.00;3.38;;;;;;;17.14;46.61;94421.88;5031936;28;20032;-77
2022/10/26 08:08:30;;;;;;;5.93;3.17;;;;;;;17.17;46.64;94434.63;5027886;28;20052;-76
2022/10/26 08:10:56;;;;;;;7.07;3.80;;;;;;;17.22;46.87;94441.66;5032084;28;20033;-76
2022/10/26 08:13:21;;;;;;;6.43;3.00;;;;;;;17.26;46.98;94454.06;5031110;28;20044;-76
2022/10/26 08:15:47;;;;;;;7.47;2.97;;;;;;;17.21;47.32;94451.63;5032379;28;20825;-77
2022/10/26 08:18:12;;;;;;;4.90;3.08;;;;;;;17.07;47.17;94453.84;5031043;28;20360;-76
2022/10/26 08:20:38;;;;;;;5.18;3.42;;;;;;;16.91;47.88;94453.78;5031773;28;20037;-77
2022/10/26 08:23:05;;;;;;;7.60;3.47;;;;;;;16.82;48.40;94455.78;5031628;28;20029;-77
2022/10/26 08:25:31;;;;;;;5.10;3.67;;;;;;;16.69;47.95;94441.59;5007811;28;20044;-76
2022/10/26 08:28:02;;;;;;;5.93;2.95;;;;;;;16.74;47.77;94444.03;5032893;28;20619;-75
2022/10/26 08:30:28;;;;;;;4.10;2.83;;;;;;;17.04;47.57;94454.53;5034211;28;20028;-76
2022/10/26 08:33:03;;;;;;;7.05;3.65;;;;;;;17.17;46.99;94454.22;5031691;28;20107;-77
2022/10/26 08:35:30;;;;;;;5.25;2.70;;;;;;;17.02;47.05;94425.31;5032230;28;20117;-76
2022/10/26 08:37:55;;;;;;;5.90;2.80;;;;;;;17.03;47.07;94426.88;5033017;28;20025;-77
2022/10/26 08:40:25;;;;;;;6.60;3.00;;;;;;;17.25;47.17;94438.31;5033527;28;20029;-77
2022/10/26 08:42:56;;;;;;;5.57;2.90;;;;;;;17.45;46.88;94440.06;5033087;28;20032;-76
2022/10/26 08:45:27;;;;;;;4.65;2.38;;;;;;;17.45;46.10;94418.53;5032834;28;20091;-76
2022/10/26 08:47:58;;;;;;;9.30;6.22;;;;;;;17.74;45.75;94453.19;5034659;28;20072;-76
2022/10/26 08:50:41;;;;;;;6.15;3.88;;;;;;;17.64;45.16;94434.81;5032505;28;20029;-76
2022/10/26 08:53:19;;;;;;;7.43;2.53;;;;;;;17.73;45.26;94462.38;5033304;28;20495;-76
2022/10/26 08:55:53;;;;;;;3.17;2.25;;;;;;;17.80;45.28;94454.47;5014764;28;20029;-76
2022/10/26 08:58:26;;;;;;;4.97;3.00;;;;;;;17.87;45.07;94464.66;5033695;28;20031;-76
2022/10/26 09:00:51;;;;;;;11.18;3.65;;;;;;;17.96;44.71;94459.94;5032198;28;20028;-76
2022/10/26 09:03:17;;;;;;;5.72;2.30;;;;;;;17.87;44.73;94425.06;5034153;28;20024;-76
2022/10/26 09:06:20;;;;;;;5.82;2.47;;;;;;;18.02;43.77;94462.03;5031893;28;20434;-76
2022/10/26 09:09:14;;;;;;;6.80;2.08;;;;;;;18.11;44.42;94456.50;5032297;28;20104;-77
2022/10/26 09:11:43;;;;;;;6.77;3.33;;;;;;;18.04;44.29;94462.47;5032136;28;20539;-76
2022/10/26 09:14:18;;;;;;;3.38;1.73;;;;;;;18.07;43.97;94454.84;5030944;28;20036;-76
2022/10/26 09:16:49;;;;;;;7.65;3.30;;;;;;;18.10;43.69;94456.84;5023488;28;20061;-76
2022/10/26 09:19:31;;;;;;;3.53;1.88;;;;;;;18.03;43.20;94430.53;5031022;28;20039;-77
2022/10/26 09:22:00;;;;;;;3.00;2.25;;;;;;;18.27;43.29;94460.00;5034010;28;20033;-77
2022/10/26 09:24:32;;;;;;;4.18;2.08;;;;;;;18.27;43.43;94453.84;5034514;28;20021;-77
2022/10/26 09:27:20;;;;;;;3.75;2.22;;;;;;;18.17;42.47;94446.25;5032712;28;20053;-77
2022/10/26 09:29:46;;;;;;;3.80;1.92;;;;;;;17.90;42.62;94413.63;5033981;28;20302;-76
2022/10/26 09:32:17;;;;;;;9.70;1.90;;;;;;;18.23;42.76;94458.34;5036348;28;20028;-78
2022/10/26 09:34:53;;;;;;;5.47;2.00;;;;;;;18.22;40.84;94460.25;5034993;28;20053;-77
2022/10/26 09:37:25;;;;;;;2.30;1.35;;;;;;;18.20;40.60;94453.63;5037179;28;20093;-77
2022/10/26 09:40:03;;;;;;;4.75;1.73;;;;;;;18.19;41.07;94457.44;5035231;28;20083;-77
2022/10/26 09:42:37;;;;;;;2.50;1.70;;;;;;;17.77;40.77;94382.53;5036509;28;20410;-75
2022/10/26 09:45:22;;;;;;;3.75;1.20;;;;;;;18.01;41.55;94436.25;5035837;28;20724;-75
2022/10/26 09:47:53;;;;;;;2.55;1.17;;;;;;;18.06;41.49;94434.44;5036844;28;20612;-77
2022/10/26 09:50:40;;;;;;;6.57;1.52;;;;;;;18.06;41.94;94431.72;5036324;28;20020;-77
2022/10/26 09:53:05;;;;;;;2.50;1.35;;;;;;;18.20;41.84;94438.28;5038550;28;20504;-77
2022/10/26 09:55:33;;;;;;;4.15;2.47;;;;;;;18.22;41.60;94446.00;5036911;28;20136;-77
2022/10/26 09:58:02;;;;;;;3.28;2.00;;;;;;;18.25;41.28;94429.94;5040288;28;20044;-76
2022/10/26 10:00:28;;;;;;;4.57;1.75;;;;;;;18.39;41.44;94432.19;5038999;28;20104;-76
2022/10/26 10:02:55;;;;;;;2.90;1.05;;;;;;;18.47;41.55;94436.66;5021277;28;21197;-77
2022/10/26 10:05:32;;;;;;;1.70;1.35;;;;;;;18.12;41.65;94406.13;5039005;28;20035;-76
2022/10/26 10:08:25;;;;;;;4.63;1.60;;;;;;;18.48;41.30;94422.81;5039233;28;20031;-75
2022/10/26 10:11:08;;;;;;;1.88;1.27;;;;;;;18.58;40.23;94426.88;5035933;28;20037;-76
2022/10/26 10:13:39;;;;;;;2.03;1.10;;;;;;;18.75;40.35;94429.28;5037849;28;20064;-78
2022/10/26 10:16:12;;;;;;;4.32;1.52;;;;;;;18.76;40.14;94424.66;5038499;28;20083;-76
2022/10/26 10:18:40;;;;;;;4.05;1.58;;;;;;;18.62;40.38;94411.63;5038806;28;20063;-77
2022/10/26 10:21:07;;;;;;;7.43;2.65;;;;;;;18.68;40.51;94407.50;5038288;28;20157;-77
2022/10/26 10:23:35;;;;;;;6.00;1.45;;;;;;;18.62;40.62;94373.13;5038412;28;20385;-76
2022/10/26 10:26:09;;;;;;;3.90;1.30;;;;;;;18.86;40.96;94416.84;5038515;28;20492;-77
2022/10/26 10:28:36;;;;;;;5.97;1.33;;;;;;;18.70;40.26;94407.97;5035299;28;20044;-77
2022/10/26 10:31:17;;;;;;;1.65;1.27;;;;;;;18.69;40.62;94390.22;5037466;28;20037;-77
2022/10/26 10:33:44;;;;;;;4.35;1.50;;;;;;;18.76;40.56;94406.59;5039720;28;20492;-76
2022/10/26 10:36:15;;;;;;;5.50;1.90;;;;;;;18.79;41.31;94416.66;5036357;28;20021;-76
2022/10/26 10:38:43;;;;;;;3.97;1.77;;;;;;;18.84;41.73;94405.63;5020843;28;20048;-77
2022/10/26 10:41:15;;;;;;;3.78;1.30;;;;;;;18.90;41.56;94408.81;5037579;28;20029;-77
2022/10/26 10:43:47;;;;;;;3.67;1.75;;;;;;;18.86;40.94;94386.41;5038560;28;20277;-77
2022/10/26 10:46:18;;;;;;;3.58;1.63;;;;;;;19.01;41.21;94396.38;5038425;28;20043;-77
2022/10/26 10:48:52;;;;;;;5.75;2.00;;;;;;;19.03;41.59;94387.91;5038548;28;20032;-77
2022/10/26 10:51:21;;;;;;;11.32;1.85;;;;;;;19.21;41.15;94389.09;5039436;28;20029;-78
2022/10/26 10:53:48;;;;;;;3.08;1.60;;;;;;;19.21;40.40;94364.81;5038231;28;20718;-77
2022/10/26 10:56:35;;;;;;;4.97;1.67;;;;;;;19.51;39.99;94392.81;5036624;28;20036;-78
2022/10/26 10:59:14;;;;;;;5.20;1.63;;;;;;;19.60;40.86;94387.97;5037816;28;20324;-77
2022/10/26 11:02:03;;;;;;;2.75;2.00;;;;;;;19.64;40.02;94388.84;5038546;28;20024;-77
2022/10/26 11:04:55;;;;;;;3.08;1.73;;;;;;;19.61;40.14;94391.44;5000229;28;20732;-76
2022/10/26 11:07:23;;;;;;;4.20;1.27;;;;;;;19.73;39.99;94380.53;5037133;28;20025;-78
2022/10/26 11:09:52;;;;;;;2.53;1.30;;;;;;;19.64;39.68;94383.44;5037598;28;20025;-78
2022/10/26 11:12:25;;;;;;;2.45;1.40;;;;;;;19.56;39.17;94352.06;5035781;28;20031;-77
2022/10/26 11:15:01;;;;;;;2.08;1.23;;;;;;;19.69;39.24;94361.56;5037520;28;20178;-77
2022/10/26 11:17:33;;;;;;;2.90;1.60;;;;;;;19.60;38.79;94350.19;5037841;28;20052;-77
2022/10/26 11:20:01;;;;;;;2.28;1.33;;;;;;;19.81;38.65;94381.41;5038556;28;20501;-77
2022/10/26 11:22:35;;;;;;;2.50;1.27;;;;;;;19.65;38.60;94379.59;5038703;28;20036;-77
2022/10/26 11:25:23;;;;;;;3.10;1.07;;;;;;;19.66;39.07;94380.38;5037368;28;20046;-78
2022/10/26 11:28:15;;;;;;;2.53;1.58;;;;;;;19.79;39.08;94375.63;5039889;28;20028;-77
2022/10/26 11:30:46;;;;;;;4.57;1.83;;;;;;;19.71;39.21;94356.56;5038512;28;20395;-77
2022/10/26 11:33:43;;;;;;;3.58;1.63;;;;;;;19.95;38.35;94376.28;5038424;28;20021;-77
2022/10/26 11:36:14;;;;;;;2.53;0.90;;;;;;;19.91;37.38;94354.63;5015644;28;20772;-79
2022/10/26 11:38:54;;;;;;;3.45;1.05;;;;;;;20.01;37.11;94369.44;5037290;28;20382;-77
2022/10/26 11:41:46;;;;;;;2.80;0.88;;;;;;;20.05;36.94;94367.59;5038370;28;20029;-80
2022/10/26 11:44:19;;;;;;;1.58;0.95;;;;;;;19.92;35.98;94355.41;5039112;28;20474;-77
2022/10/26 11:46:50;;;;;;;1.52;0.80;;;;;;;19.80;35.76;94309.72;5037575;28;20051;-76
2022/10/26 11:49:41;;;;;;;2.67;1.00;;;;;;;20.12;35.48;94357.72;5037590;28;20079;-77
2022/10/26 11:52:16;;;;;;;2.50;1.10;;;;;;;20.18;35.42;94355.53;5037565;28;21318;-77
2022/10/26 11:54:52;;;;;;;3.05;0.60;;;;;;;20.13;34.59;94353.09;5036082;28;20606;-77
2022/10/26 11:57:20;;;;;;;1.58;0.65;;;;;;;20.17;34.71;94353.94;5036337;28;20039;-76